sensor_id;sensor_type;location;lat;lon;timestamp;P1;durP1;ratioP1;P2;durP2;ratioP2
58966;SDS011;44744;51.894;5.080;2024-02-26T00:03:54;4.30;;;3.00;;
58966;SDS011;44744;51.894;5.080;2024-02-26T00:08:59;6.20;;;3.30;;
58966;SDS011;44744;51.894;5.080;2024-02-26T00:14:00;4.20;;;2.90;;
58966;SDS011;44744;51.894;5.080;2024-02-26T00:19:01;4.60;;;3.20;;
58966;SDS011;44744;51.894;5.080;2024-02-26T00:24:02;4.90;;;2.90;;
58966;SDS011;44744;51.894;5.080;2024-02-26T00:29:02;4.60;;;3.30;;
58966;SDS011;44744;51.894;5.080;2024-02-26T00:34:02;4.60;;;3.30;;
58966;SDS011;44744;51.894;5.080;2024-02-26T00:39:03;4.70;;;2.90;;
58966;SDS011;44744;51.894;5.080;2024-02-26T00:44:03;4.50;;;3.20;;
58966;SDS011;44744;51.894;5.080;2024-02-26T00:49:04;4.20;;;3.00;;
58966;SDS011;44744;51.894;5.080;2024-02-26T00:54:04;5.70;;;3.20;;
58966;SDS011;44744;51.894;5.080;2024-02-26T00:59:05;5.00;;;3.30;;
58966;SDS011;44744;51.894;5.080;2024-02-26T01:04:06;4.60;;;3.10;;
58966;SDS011;44744;51.894;5.080;2024-02-26T01:09:06;4.00;;;3.00;;
58966;SDS011;44744;51.894;5.080;2024-02-26T01:14:08;3.90;;;2.90;;
58966;SDS011;44744;51.894;5.080;2024-02-26T01:19:08;4.10;;;3.00;;
58966;SDS011;44744;51.894;5.080;2024-02-26T01:24:09;6.70;;;3.70;;
58966;SDS011;44744;51.894;5.080;2024-02-26T01:29:09;7.30;;;3.30;;
58966;SDS011;44744;51.894;5.080;2024-02-26T01:34:09;6.40;;;3.70;;
58966;SDS011;44744;51.894;5.080;2024-02-26T01:39:10;6.50;;;3.70;;
58966;SDS011;44744;51.894;5.080;2024-02-26T01:44:12;4.70;;;3.40;;
58966;SDS011;44744;51.894;5.080;2024-02-26T01:49:16;5.00;;;3.30;;
58966;SDS011;44744;51.894;5.080;2024-02-26T01:54:16;4.70;;;3.40;;
58966;SDS011;44744;51.894;5.080;2024-02-26T01:59:17;5.60;;;3.80;;
58966;SDS011;44744;51.894;5.080;2024-02-26T02:04:17;4.60;;;3.80;;
58966;SDS011;44744;51.894;5.080;2024-02-26T02:09:18;4.90;;;3.50;;
58966;SDS011;44744;51.894;5.080;2024-02-26T02:14:19;5.60;;;4.00;;
58966;SDS011;44744;51.894;5.080;2024-02-26T02:19:19;5.50;;;4.00;;
58966;SDS011;44744;51.894;5.080;2024-02-26T02:24:20;7.00;;;4.20;;
58966;SDS011;44744;51.894;5.080;2024-02-26T02:29:20;5.50;;;3.70;;
58966;SDS011;44744;51.894;5.080;2024-02-26T02:34:21;5.70;;;4.40;;
58966;SDS011;44744;51.894;5.080;2024-02-26T02:39:22;6.00;;;4.40;;
58966;SDS011;44744;51.894;5.080;2024-02-26T02:44:23;5.70;;;4.60;;
58966;SDS011;44744;51.894;5.080;2024-02-26T02:49:23;7.40;;;4.70;;
58966;SDS011;44744;51.894;5.080;2024-02-26T02:54:23;6.00;;;4.50;;
58966;SDS011;44744;51.894;5.080;2024-02-26T02:59:25;5.80;;;4.50;;
58966;SDS011;44744;51.894;5.080;2024-02-26T03:04:25;7.20;;;4.90;;
58966;SDS011;44744;51.894;5.080;2024-02-26T03:09:26;6.40;;;5.40;;
58966;SDS011;44744;51.894;5.080;2024-02-26T03:14:26;7.90;;;5.40;;
58966;SDS011;44744;51.894;5.080;2024-02-26T03:19:27;6.80;;;5.40;;
58966;SDS011;44744;51.894;5.080;2024-02-26T03:24:27;8.40;;;5.80;;
58966;SDS011;44744;51.894;5.080;2024-02-26T03:29:28;6.50;;;5.30;;
58966;SDS011;44744;51.894;5.080;2024-02-26T03:34:28;10.70;;;6.00;;
58966;SDS011;44744;51.894;5.080;2024-02-26T03:39:30;6.80;;;5.40;;
58966;SDS011;44744;51.894;5.080;2024-02-26T03:44:30;7.30;;;5.60;;
58966;SDS011;44744;51.894;5.080;2024-02-26T03:49:31;7.60;;;5.40;;
58966;SDS011;44744;51.894;5.080;2024-02-26T03:54:31;10.20;;;5.70;;
58966;SDS011;44744;51.894;5.080;2024-02-26T03:59:32;6.80;;;5.30;;
58966;SDS011;44744;51.894;5.080;2024-02-26T04:04:35;7.90;;;5.80;;
58966;SDS011;44744;51.894;5.080;2024-02-26T04:09:35;7.70;;;5.50;;
58966;SDS011;44744;51.894;5.080;2024-02-26T04:14:36;9.00;;;5.80;;
58966;SDS011;44744;51.894;5.080;2024-02-26T04:19:36;7.90;;;6.20;;
58966;SDS011;44744;51.894;5.080;2024-02-26T04:24:37;8.90;;;5.50;;
58966;SDS011;44744;51.894;5.080;2024-02-26T04:29:37;7.10;;;6.00;;
58966;SDS011;44744;51.894;5.080;2024-02-26T04:34:37;8.60;;;6.80;;
58966;SDS011;44744;51.894;5.080;2024-02-26T04:39:38;8.20;;;6.50;;
58966;SDS011;44744;51.894;5.080;2024-02-26T04:44:38;9.60;;;5.80;;
58966;SDS011;44744;51.894;5.080;2024-02-26T04:49:39;6.80;;;5.20;;
58966;SDS011;44744;51.894;5.080;2024-02-26T04:54:39;10.80;;;6.70;;
58966;SDS011;44744;51.894;5.080;2024-02-26T04:59:40;8.80;;;5.90;;
58966;SDS011;44744;51.894;5.080;2024-02-26T05:04:42;8.30;;;5.60;;
58966;SDS011;44744;51.894;5.080;2024-02-26T05:09:43;6.90;;;5.40;;
58966;SDS011;44744;51.894;5.080;2024-02-26T05:14:43;8.20;;;6.30;;
58966;SDS011;44744;51.894;5.080;2024-02-26T05:19:44;9.60;;;6.50;;
58966;SDS011;44744;51.894;5.080;2024-02-26T05:24:44;9.70;;;7.10;;
58966;SDS011;44744;51.894;5.080;2024-02-26T05:29:45;8.60;;;6.60;;
58966;SDS011;44744;51.894;5.080;2024-02-26T05:34:45;8.60;;;6.10;;
58966;SDS011;44744;51.894;5.080;2024-02-26T05:39:46;10.70;;;6.20;;
58966;SDS011;44744;51.894;5.080;2024-02-26T05:44:46;8.90;;;6.30;;
58966;SDS011;44744;51.894;5.080;2024-02-26T05:49:47;7.90;;;6.00;;
58966;SDS011;44744;51.894;5.080;2024-02-26T05:54:48;7.90;;;6.00;;
58966;SDS011;44744;51.894;5.080;2024-02-26T05:59:49;9.50;;;6.40;;
58966;SDS011;44744;51.894;5.080;2024-02-26T06:04:49;7.30;;;5.70;;
58966;SDS011;44744;51.894;5.080;2024-02-26T06:09:49;8.40;;;5.90;;
58966;SDS011;44744;51.894;5.080;2024-02-26T06:14:50;7.40;;;5.90;;
58966;SDS011;44744;51.894;5.080;2024-02-26T06:19:51;8.20;;;5.90;;
58966;SDS011;44744;51.894;5.080;2024-02-26T06:24:51;9.30;;;5.60;;
58966;SDS011;44744;51.894;5.080;2024-02-26T06:29:52;8.50;;;5.50;;
58966;SDS011;44744;51.894;5.080;2024-02-26T06:34:55;7.30;;;5.50;;
58966;SDS011;44744;51.894;5.080;2024-02-26T06:39:56;8.30;;;5.90;;
58966;SDS011;44744;51.894;5.080;2024-02-26T06:44:57;7.20;;;5.90;;
58966;SDS011;44744;51.894;5.080;2024-02-26T06:50:01;8.50;;;6.40;;
58966;SDS011;44744;51.894;5.080;2024-02-26T06:55:01;7.00;;;5.50;;
58966;SDS011;44744;51.894;5.080;2024-02-26T07:00:02;9.20;;;6.60;;
58966;SDS011;44744;51.894;5.080;2024-02-26T07:05:17;10.50;;;7.00;;
58966;SDS011;44744;51.894;5.080;2024-02-26T07:10:18;10.40;;;7.30;;
58966;SDS011;44744;51.894;5.080;2024-02-26T07:15:55;10.10;;;7.00;;
58966;SDS011;44744;51.894;5.080;2024-02-26T07:20:55;12.30;;;7.90;;
58966;SDS011;44744;51.894;5.080;2024-02-26T07:25:56;10.50;;;7.90;;
58966;SDS011;44744;51.894;5.080;2024-02-26T07:30:57;11.80;;;7.70;;
58966;SDS011;44744;51.894;5.080;2024-02-26T07:36:00;12.50;;;8.00;;
58966;SDS011;44744;51.894;5.080;2024-02-26T07:46:12;15.10;;;8.50;;
58966;SDS011;44744;51.894;5.080;2024-02-26T07:51:13;12.40;;;8.00;;
58966;SDS011;44744;51.894;5.080;2024-02-26T07:56:17;12.50;;;8.60;;
58966;SDS011;44744;51.894;5.080;2024-02-26T08:01:26;12.10;;;8.90;;
58966;SDS011;44744;51.894;5.080;2024-02-26T08:06:27;14.70;;;9.20;;
58966;SDS011;44744;51.894;5.080;2024-02-26T08:11:27;15.30;;;9.50;;
58966;SDS011;44744;51.894;5.080;2024-02-26T08:16:28;13.80;;;9.60;;
58966;SDS011;44744;51.894;5.080;2024-02-26T08:21:28;18.20;;;10.40;;
58966;SDS011;44744;51.894;5.080;2024-02-26T08:26:29;15.30;;;9.80;;
58966;SDS011;44744;51.894;5.080;2024-02-26T08:31:29;15.90;;;10.60;;
58966;SDS011;44744;51.894;5.080;2024-02-26T08:36:31;17.90;;;11.20;;
58966;SDS011;44744;51.894;5.080;2024-02-26T08:46:37;18.10;;;11.70;;
58966;SDS011;44744;51.894;5.080;2024-02-26T08:51:43;19.10;;;12.60;;
58966;SDS011;44744;51.894;5.080;2024-02-26T08:56:44;20.00;;;14.10;;
58966;SDS011;44744;51.894;5.080;2024-02-26T09:01:44;18.80;;;13.50;;
58966;SDS011;44744;51.894;5.080;2024-02-26T09:06:45;20.80;;;14.00;;
58966;SDS011;44744;51.894;5.080;2024-02-26T09:11:46;16.70;;;12.00;;
58966;SDS011;44744;51.894;5.080;2024-02-26T09:16:49;16.30;;;12.10;;
58966;SDS011;44744;51.894;5.080;2024-02-26T09:21:53;20.30;;;12.80;;
58966;SDS011;44744;51.894;5.080;2024-02-26T09:26:57;16.70;;;11.70;;
58966;SDS011;44744;51.894;5.080;2024-02-26T09:31:57;14.80;;;11.00;;
58966;SDS011;44744;51.894;5.080;2024-02-26T09:36:58;12.20;;;9.70;;
58966;SDS011;44744;51.894;5.080;2024-02-26T09:47:04;13.10;;;9.30;;
58966;SDS011;44744;51.894;5.080;2024-02-26T09:52:08;11.40;;;8.60;;
58966;SDS011;44744;51.894;5.080;2024-02-26T09:57:09;11.30;;;8.50;;
58966;SDS011;44744;51.894;5.080;2024-02-26T10:02:19;11.70;;;8.60;;
58966;SDS011;44744;51.894;5.080;2024-02-26T10:07:21;11.70;;;8.40;;
58966;SDS011;44744;51.894;5.080;2024-02-26T10:12:22;10.20;;;7.80;;
58966;SDS011;44744;51.894;5.080;2024-02-26T10:17:25;12.70;;;7.80;;
58966;SDS011;44744;51.894;5.080;2024-02-26T10:22:27;11.00;;;7.20;;
58966;SDS011;44744;51.894;5.080;2024-02-26T10:27:32;9.20;;;7.20;;
58966;SDS011;44744;51.894;5.080;2024-02-26T10:32:33;11.20;;;7.70;;
58966;SDS011;44744;51.894;5.080;2024-02-26T10:37:34;9.00;;;7.30;;
58966;SDS011;44744;51.894;5.080;2024-02-26T10:42:35;9.60;;;6.90;;
58966;SDS011;44744;51.894;5.080;2024-02-26T10:47:35;7.50;;;5.80;;
58966;SDS011;44744;51.894;5.080;2024-02-26T10:52:36;9.60;;;6.60;;
58966;SDS011;44744;51.894;5.080;2024-02-26T10:57:40;8.00;;;6.50;;
58966;SDS011;44744;51.894;5.080;2024-02-26T11:02:44;10.70;;;6.80;;
58966;SDS011;44744;51.894;5.080;2024-02-26T11:07:46;9.20;;;6.40;;
58966;SDS011;44744;51.894;5.080;2024-02-26T11:12:49;9.10;;;7.10;;
58966;SDS011;44744;51.894;5.080;2024-02-26T11:17:52;9.00;;;6.60;;
58966;SDS011;44744;51.894;5.080;2024-02-26T11:22:53;8.30;;;6.20;;
58966;SDS011;44744;51.894;5.080;2024-02-26T11:27:55;8.40;;;6.50;;
58966;SDS011;44744;51.894;5.080;2024-02-26T11:32:59;8.70;;;6.40;;
58966;SDS011;44744;51.894;5.080;2024-02-26T11:37:59;8.40;;;6.40;;
58966;SDS011;44744;51.894;5.080;2024-02-26T11:43:01;8.30;;;6.70;;
58966;SDS011;44744;51.894;5.080;2024-02-26T11:48:01;8.20;;;6.30;;
58966;SDS011;44744;51.894;5.080;2024-02-26T11:53:21;9.40;;;6.80;;
58966;SDS011;44744;51.894;5.080;2024-02-26T11:58:23;10.60;;;7.10;;
58966;SDS011;44744;51.894;5.080;2024-02-26T12:03:23;9.60;;;7.10;;
58966;SDS011;44744;51.894;5.080;2024-02-26T12:08:24;9.70;;;6.80;;
58966;SDS011;44744;51.894;5.080;2024-02-26T12:13:29;12.30;;;6.90;;
58966;SDS011;44744;51.894;5.080;2024-02-26T12:18:30;8.70;;;6.70;;
58966;SDS011;44744;51.894;5.080;2024-02-26T12:23:31;9.30;;;6.60;;
58966;SDS011;44744;51.894;5.080;2024-02-26T12:28:32;10.30;;;7.00;;
58966;SDS011;44744;51.894;5.080;2024-02-26T12:33:32;9.20;;;6.70;;
58966;SDS011;44744;51.894;5.080;2024-02-26T12:38:34;10.20;;;7.00;;
58966;SDS011;44744;51.894;5.080;2024-02-26T12:43:37;9.50;;;7.10;;
58966;SDS011;44744;51.894;5.080;2024-02-26T12:48:38;9.40;;;7.20;;
58966;SDS011;44744;51.894;5.080;2024-02-26T12:53:39;8.50;;;6.80;;
58966;SDS011;44744;51.894;5.080;2024-02-26T12:58:40;8.30;;;6.80;;
58966;SDS011;44744;51.894;5.080;2024-02-26T13:03:41;9.90;;;6.80;;
58966;SDS011;44744;51.894;5.080;2024-02-26T13:08:42;8.10;;;6.00;;
58966;SDS011;44744;51.894;5.080;2024-02-26T13:13:47;8.70;;;6.20;;
58966;SDS011;44744;51.894;5.080;2024-02-26T13:18:49;10.50;;;6.70;;
58966;SDS011;44744;51.894;5.080;2024-02-26T13:23:51;8.30;;;6.50;;
58966;SDS011;44744;51.894;5.080;2024-02-26T13:28:59;7.90;;;6.20;;
58966;SDS011;44744;51.894;5.080;2024-02-26T13:34:01;8.90;;;6.00;;
58966;SDS011;44744;51.894;5.080;2024-02-26T13:39:04;9.10;;;6.30;;
58966;SDS011;44744;51.894;5.080;2024-02-26T13:44:13;8.80;;;6.40;;
58966;SDS011;44744;51.894;5.080;2024-02-26T13:49:13;10.40;;;6.30;;
58966;SDS011;44744;51.894;5.080;2024-02-26T13:54:14;9.40;;;6.50;;
58966;SDS011;44744;51.894;5.080;2024-02-26T13:59:17;7.20;;;6.00;;
58966;SDS011;44744;51.894;5.080;2024-02-26T14:04:17;7.80;;;5.80;;
58966;SDS011;44744;51.894;5.080;2024-02-26T14:09:21;7.80;;;6.50;;
58966;SDS011;44744;51.894;5.080;2024-02-26T14:14:22;8.00;;;6.20;;
58966;SDS011;44744;51.894;5.080;2024-02-26T14:19:22;8.20;;;6.60;;
58966;SDS011;44744;51.894;5.080;2024-02-26T14:24:23;7.40;;;6.90;;
58966;SDS011;44744;51.894;5.080;2024-02-26T14:29:25;10.00;;;6.20;;
58966;SDS011;44744;51.894;5.080;2024-02-26T14:34:26;8.10;;;5.20;;
58966;SDS011;44744;51.894;5.080;2024-02-26T14:39:27;8.80;;;5.30;;
58966;SDS011;44744;51.894;5.080;2024-02-26T14:44:29;8.30;;;5.80;;
58966;SDS011;44744;51.894;5.080;2024-02-26T14:49:29;6.40;;;5.30;;
58966;SDS011;44744;51.894;5.080;2024-02-26T14:54:31;6.00;;;5.00;;
58966;SDS011;44744;51.894;5.080;2024-02-26T14:59:37;6.40;;;4.30;;
58966;SDS011;44744;51.894;5.080;2024-02-26T15:04:38;6.50;;;4.70;;
58966;SDS011;44744;51.894;5.080;2024-02-26T15:09:41;5.60;;;4.60;;
58966;SDS011;44744;51.894;5.080;2024-02-26T15:14:41;7.80;;;4.70;;
58966;SDS011;44744;51.894;5.080;2024-02-26T15:24:57;7.50;;;4.80;;
58966;SDS011;44744;51.894;5.080;2024-02-26T15:29:57;8.30;;;4.90;;
58966;SDS011;44744;51.894;5.080;2024-02-26T15:35:00;5.50;;;4.40;;
58966;SDS011;44744;51.894;5.080;2024-02-26T15:40:01;5.80;;;4.20;;
58966;SDS011;44744;51.894;5.080;2024-02-26T15:45:04;5.80;;;4.10;;
58966;SDS011;44744;51.894;5.080;2024-02-26T15:50:08;5.80;;;4.20;;
58966;SDS011;44744;51.894;5.080;2024-02-26T15:55:34;5.30;;;3.90;;
58966;SDS011;44744;51.894;5.080;2024-02-26T16:00:44;7.80;;;4.10;;
58966;SDS011;44744;51.894;5.080;2024-02-26T16:11:46;7.00;;;4.40;;
58966;SDS011;44744;51.894;5.080;2024-02-26T16:28:33;8.60;;;4.50;;
58966;SDS011;44744;51.894;5.080;2024-02-26T16:33:35;5.80;;;4.40;;
58966;SDS011;44744;51.894;5.080;2024-02-26T16:38:39;8.50;;;5.40;;
58966;SDS011;44744;51.894;5.080;2024-02-26T16:43:43;8.40;;;5.80;;
58966;SDS011;44744;51.894;5.080;2024-02-26T16:48:50;10.50;;;5.90;;
58966;SDS011;44744;51.894;5.080;2024-02-26T16:54:00;8.10;;;5.60;;
58966;SDS011;44744;51.894;5.080;2024-02-26T16:59:05;7.30;;;5.20;;
58966;SDS011;44744;51.894;5.080;2024-02-26T17:04:19;7.60;;;5.70;;
58966;SDS011;44744;51.894;5.080;2024-02-26T17:09:32;9.50;;;6.00;;
58966;SDS011;44744;51.894;5.080;2024-02-26T17:14:34;9.60;;;5.60;;
58966;SDS011;44744;51.894;5.080;2024-02-26T17:19:36;8.20;;;6.40;;
58966;SDS011;44744;51.894;5.080;2024-02-26T17:24:36;9.10;;;6.90;;
58966;SDS011;44744;51.894;5.080;2024-02-26T17:29:40;9.40;;;6.70;;
58966;SDS011;44744;51.894;5.080;2024-02-26T17:34:49;8.90;;;5.70;;
58966;SDS011;44744;51.894;5.080;2024-02-26T17:39:50;9.30;;;6.20;;
58966;SDS011;44744;51.894;5.080;2024-02-26T17:44:50;7.90;;;6.00;;
58966;SDS011;44744;51.894;5.080;2024-02-26T17:49:52;9.70;;;6.10;;
58966;SDS011;44744;51.894;5.080;2024-02-26T17:54:55;7.90;;;5.50;;
58966;SDS011;44744;51.894;5.080;2024-02-26T17:59:55;7.00;;;5.40;;
58966;SDS011;44744;51.894;5.080;2024-02-26T18:04:59;7.50;;;5.70;;
58966;SDS011;44744;51.894;5.080;2024-02-26T18:10:25;7.90;;;5.80;;
58966;SDS011;44744;51.894;5.080;2024-02-26T18:15:35;9.20;;;5.90;;
58966;SDS011;44744;51.894;5.080;2024-02-26T19:06:24;11.60;;;6.20;;
58966;SDS011;44744;51.894;5.080;2024-02-26T19:11:35;8.30;;;5.90;;
58966;SDS011;44744;51.894;5.080;2024-02-26T19:16:45;9.70;;;6.10;;
58966;SDS011;44744;51.894;5.080;2024-02-26T19:27:14;8.10;;;5.60;;
58966;SDS011;44744;51.894;5.080;2024-02-26T19:37:44;7.70;;;4.80;;
58966;SDS011;44744;51.894;5.080;2024-02-26T19:42:46;9.30;;;5.20;;
58966;SDS011;44744;51.894;5.080;2024-02-26T19:47:46;8.90;;;5.10;;
58966;SDS011;44744;51.894;5.080;2024-02-26T19:52:51;7.00;;;4.60;;
58966;SDS011;44744;51.894;5.080;2024-02-26T19:57:53;7.00;;;4.80;;
58966;SDS011;44744;51.894;5.080;2024-02-26T20:02:57;6.60;;;4.80;;
58966;SDS011;44744;51.894;5.080;2024-02-26T20:08:08;9.00;;;5.70;;
58966;SDS011;44744;51.894;5.080;2024-02-26T20:13:16;7.90;;;6.10;;
58966;SDS011;44744;51.894;5.080;2024-02-26T20:40:16;9.30;;;6.30;;
58966;SDS011;44744;51.894;5.080;2024-02-26T20:50:54;8.50;;;6.30;;
58966;SDS011;44744;51.894;5.080;2024-02-26T20:56:03;10.40;;;7.00;;
58966;SDS011;44744;51.894;5.080;2024-02-26T21:01:07;10.80;;;6.20;;
58966;SDS011;44744;51.894;5.080;2024-02-26T21:06:12;9.50;;;6.30;;
58966;SDS011;44744;51.894;5.080;2024-02-26T21:16:36;9.50;;;6.20;;
58966;SDS011;44744;51.894;5.080;2024-02-26T21:32:13;9.30;;;6.70;;
58966;SDS011;44744;51.894;5.080;2024-02-26T21:37:25;8.90;;;5.90;;
58966;SDS011;44744;51.894;5.080;2024-02-26T21:42:46;13.20;;;6.80;;
58966;SDS011;44744;51.894;5.080;2024-02-26T21:47:49;10.00;;;7.00;;
58966;SDS011;44744;51.894;5.080;2024-02-26T21:52:50;11.20;;;6.90;;
58966;SDS011;44744;51.894;5.080;2024-02-26T22:08:43;9.20;;;6.60;;
58966;SDS011;44744;51.894;5.080;2024-02-26T22:13:44;11.40;;;7.30;;
58966;SDS011;44744;51.894;5.080;2024-02-26T22:18:47;12.00;;;8.00;;
58966;SDS011;44744;51.894;5.080;2024-02-26T22:23:48;11.10;;;7.30;;
58966;SDS011;44744;51.894;5.080;2024-02-26T22:28:49;10.70;;;7.70;;
58966;SDS011;44744;51.894;5.080;2024-02-26T22:33:52;10.10;;;7.20;;
58966;SDS011;44744;51.894;5.080;2024-02-26T22:38:53;12.40;;;8.20;;
58966;SDS011;44744;51.894;5.080;2024-02-26T22:43:55;13.10;;;8.60;;
58966;SDS011;44744;51.894;5.080;2024-02-26T22:48:55;10.50;;;7.80;;
58966;SDS011;44744;51.894;5.080;2024-02-26T22:53:56;11.70;;;8.60;;
58966;SDS011;44744;51.894;5.080;2024-02-26T22:58:57;11.40;;;8.40;;
58966;SDS011;44744;51.894;5.080;2024-02-26T23:03:57;12.80;;;8.30;;
58966;SDS011;44744;51.894;5.080;2024-02-26T23:09:01;9.80;;;7.40;;
58966;SDS011;44744;51.894;5.080;2024-02-26T23:14:05;10.50;;;7.60;;
58966;SDS011;44744;51.894;5.080;2024-02-26T23:19:05;10.60;;;8.20;;
58966;SDS011;44744;51.894;5.080;2024-02-26T23:24:08;11.50;;;8.00;;
58966;SDS011;44744;51.894;5.080;2024-02-26T23:29:09;11.60;;;8.00;;
58966;SDS011;44744;51.894;5.080;2024-02-26T23:34:10;10.90;;;8.20;;
58966;SDS011;44744;51.894;5.080;2024-02-26T23:39:10;10.60;;;7.50;;
58966;SDS011;44744;51.894;5.080;2024-02-26T23:44:13;10.80;;;7.60;;
58966;SDS011;44744;51.894;5.080;2024-02-26T23:49:14;11.60;;;8.10;;
58966;SDS011;44744;51.894;5.080;2024-02-26T23:54:15;11.50;;;8.20;;
58966;SDS011;44744;51.894;5.080;2024-02-26T23:59:16;12.30;;;8.60;;
